KYNG/YNG METAR and TAF weather

Enter ICAO airport designator
Station Type Date Time Source
KYNG METAR 2019/08/26 06:51 UTC NOAA

KYNG 260651Z 12010KT 10SM FEW050 FEW250 14/11 A3017 RMK AO2 SLP210 T01440106 $


Station Type Date Time Source
KYNG Decoded METAR 2019/08/26 06:51 UTC NOAA

Station name not available
Aug 26, 2019 - 02:51 AM EDT / 2019.08.26 0651 UTC
Wind: from the ESE (120 degrees) at 12 MPH (10 KT):0
Visibility: 10 mile(s):0
Sky conditions: mostly clear
Temperature: 57.9 F (14.4 C)
Dew Point: 51.1 F (10.6 C)
Relative Humidity: 77%
Pressure (altimeter): 30.17 in. Hg (1021 hPa)
ob: KYNG 260651Z 12010KT 10SM FEW050 FEW250 14/11 A3017 RMK AO2 SLP210 T01440106
cycle: 7

Station Type Date Time Source
KYNG TAF 2019/08/26 06:28 UTC NOAA

TAF KYNG 260526Z 2606/2706 13010KT P6SM FEW250
FM261500 14010G18KT P6SM FEW040 SCT250
FM270500 15010G20KT P6SM VCSH SCT025 OVC035

Example: see airport list